createdAt,value
2016-06-11T00:00:30.589Z,996.18
2016-06-11T00:01:30.623Z,996.14
2016-06-11T00:02:30.657Z,996.18
2016-06-11T00:03:30.707Z,996.14
2016-06-11T00:04:30.773Z,996.14
2016-06-11T00:05:30.791Z,996.13
2016-06-11T00:06:30.826Z,996.12
2016-06-11T00:07:30.892Z,996.13
2016-06-11T00:08:30.910Z,996.15
2016-06-11T00:09:30.961Z,996.12
2016-06-11T00:10:31.025Z,996.12
2016-06-11T00:11:31.044Z,996.12
2016-06-11T00:12:31.095Z,996.13
2016-06-11T00:13:31.129Z,996.12
2016-06-11T00:14:31.444Z,996.1
2016-06-11T00:15:31.229Z,996.09
2016-06-11T00:16:31.246Z,996.09
2016-06-11T00:17:31.297Z,996.08
2016-06-11T00:18:31.331Z,996.05
2016-06-11T00:19:31.381Z,996.13
2016-06-11T00:20:31.415Z,996.07
2016-06-11T00:21:31.465Z,996.08
2016-06-11T00:22:31.501Z,996.13
2016-06-11T00:23:31.549Z,996.17
2016-06-11T00:24:31.584Z,996.13
2016-06-11T00:25:31.650Z,996.2
2016-06-11T00:26:31.684Z,996.16
2016-06-11T00:27:31.719Z,996.17
2016-06-11T00:28:31.987Z,996.22
2016-06-11T00:29:31.818Z,996.2
2016-06-11T00:30:31.837Z,996.19
2016-06-11T00:31:31.887Z,996.18
2016-06-11T00:32:31.921Z,996.18
2016-06-11T00:33:31.971Z,996.14
2016-06-11T00:34:32.021Z,996.16
2016-06-11T00:35:32.055Z,996.12
2016-06-11T00:36:32.090Z,996.1
2016-06-11T00:37:32.171Z,996.1
2016-06-11T00:38:32.175Z,996.13
2016-06-11T00:39:32.208Z,996.11
2016-06-11T00:40:32.259Z,996.13
2016-06-11T00:41:32.309Z,996.11
2016-06-11T00:42:32.343Z,996.1
2016-06-11T00:43:33.002Z,996.1
2016-06-11T00:44:32.427Z,996.1
2016-06-11T00:45:32.461Z,996.14
2016-06-11T00:46:32.511Z,996.17
2016-06-11T00:47:32.546Z,996.15
2016-06-11T00:48:32.626Z,996.21
2016-06-11T00:49:32.645Z,996.2
2016-06-11T00:50:32.680Z,996.19
2016-06-11T00:51:32.715Z,996.26
2016-06-11T00:52:32.763Z,996.27
2016-06-11T00:53:32.799Z,996.23
2016-06-11T00:54:32.849Z,996.23
2016-06-11T00:55:32.883Z,996.25
2016-06-11T00:56:32.917Z,996.29
2016-06-11T00:57:32.966Z,996.26
2016-06-11T00:58:33.001Z,996.28
2016-06-11T00:59:33.082Z,996.2
2016-06-11T01:00:33.101Z,996.18
2016-06-11T01:01:33.135Z,996.2
2016-06-11T01:02:33.169Z,996.15
2016-06-11T01:03:33.219Z,996.12
2016-06-11T01:04:33.255Z,996.16
2016-06-11T01:05:33.303Z,996.13
2016-06-11T01:06:33.339Z,996.16
2016-06-11T01:07:33.372Z,996.09
2016-06-11T01:08:33.423Z,996.1
2016-06-11T01:09:33.457Z,996.12
2016-06-11T01:10:33.523Z,996.17
2016-06-11T01:11:33.541Z,996.2
2016-06-11T01:12:33.591Z,996.23
2016-06-11T01:13:33.625Z,996.22
2016-06-11T01:14:33.675Z,996.22
2016-06-11T01:15:33.709Z,996.26
2016-06-11T01:16:33.759Z,996.28
2016-06-11T01:17:33.810Z,996.21
2016-06-11T01:18:33.844Z,996.23
2016-06-11T01:19:33.878Z,996.22
2016-06-11T01:20:33.913Z,996.2
2016-06-11T01:21:33.963Z,996.19
2016-06-11T01:22:33.996Z,996.16
2016-06-11T01:23:34.047Z,996.13
2016-06-11T01:24:34.080Z,996.2
2016-06-11T01:25:34.131Z,996.18
2016-06-11T01:26:34.181Z,996.21
2016-06-11T01:27:34.200Z,996.19
2016-06-11T01:28:34.265Z,996.17
2016-06-11T01:29:34.299Z,996.22
2016-06-11T01:30:34.335Z,996.21
2016-06-11T01:31:34.368Z,996.18
2016-06-11T01:32:34.419Z,996.15
2016-06-11T01:33:34.452Z,996.1
2016-06-11T01:34:34.502Z,996.08
2016-06-11T01:35:34.537Z,996.09
2016-06-11T01:36:34.587Z,996.11
2016-06-11T01:37:34.621Z,996.11
2016-06-11T01:38:34.655Z,996.13
2016-06-11T01:39:34.705Z,996.16
2016-06-11T01:40:34.740Z,996.13
2016-06-11T01:41:34.790Z,996.12
2016-06-11T01:42:34.824Z,996.11
2016-06-11T01:43:34.874Z,996.12
2016-06-11T01:44:34.909Z,996.09
2016-06-11T01:45:34.958Z,996.08
2016-06-11T01:46:35.040Z,996.1
2016-06-11T01:47:35.042Z,996.1
2016-06-11T01:48:35.076Z,996.09
2016-06-11T01:49:35.111Z,996.07
2016-06-11T01:50:35.161Z,996.09
2016-06-11T01:51:35.194Z,996.1
2016-06-11T01:52:35.245Z,996.13
2016-06-11T01:53:35.280Z,996.1
2016-06-11T01:54:35.329Z,996.11
2016-06-11T01:55:35.364Z,996.11
2016-06-11T01:56:35.398Z,996.12
2016-06-11T01:57:35.448Z,996.1
2016-06-11T01:58:35.482Z,996.08
2016-06-11T01:59:35.532Z,996.11
2016-06-11T02:00:35.567Z,996.13
2016-06-11T02:01:35.616Z,996.08
2016-06-11T02:02:35.651Z,996.1
2016-06-11T02:03:35.701Z,996.12
2016-06-11T02:04:35.751Z,996.13
2016-06-11T02:05:35.770Z,996.13
2016-06-11T02:06:35.820Z,996.14
2016-06-11T02:07:35.854Z,996.1
2016-06-11T02:08:35.904Z,996.11
2016-06-11T02:09:35.939Z,996.08
2016-06-11T02:10:35.989Z,996.08
2016-06-11T02:11:36.022Z,996.1
2016-06-11T02:12:36.073Z,996.15
2016-06-11T02:13:36.107Z,996.09
2016-06-11T02:14:36.141Z,996.11
2016-06-11T02:15:36.190Z,996.06
2016-06-11T02:16:36.241Z,996.07
2016-06-11T02:17:36.275Z,996.07
2016-06-11T02:18:36.310Z,996.07
2016-06-11T02:19:36.360Z,996.05
2016-06-11T02:20:36.394Z,996.04
2016-06-11T02:21:36.444Z,996.07
2016-06-11T02:22:36.478Z,996.05
2016-06-11T02:23:36.529Z,996.05
2016-06-11T02:24:36.562Z,996.06
2016-06-11T02:25:36.612Z,996.05
2016-06-11T02:26:36.647Z,996.08
2016-06-11T02:27:36.681Z,996.03
2016-06-11T02:28:36.730Z,996.09
2016-06-11T02:29:36.797Z,996.04
2016-06-11T02:30:36.814Z,996.03
2016-06-11T02:31:36.850Z,996.03
2016-06-11T02:32:36.900Z,996.06
2016-06-11T02:33:36.934Z,996.04
2016-06-11T02:34:36.984Z,996.07
2016-06-11T02:35:37.018Z,996.06
2016-06-11T02:36:37.099Z,996.08
2016-06-11T02:37:37.102Z,996.06
2016-06-11T02:38:37.137Z,996.04
2016-06-11T02:39:37.186Z,996.06
2016-06-11T02:40:37.220Z,996.06
2016-06-11T02:41:37.270Z,995.99
2016-06-11T02:42:37.306Z,996.01
2016-06-11T02:43:37.355Z,996.06
2016-06-11T02:44:37.390Z,996.02
2016-06-11T02:45:37.439Z,996.03
2016-06-11T02:46:37.474Z,996.02
2016-06-11T02:47:37.524Z,996.01
2016-06-11T02:48:37.558Z,996.06
2016-06-11T02:49:37.592Z,996.05
2016-06-11T02:50:37.642Z,996.11
2016-06-11T02:51:37.676Z,996.16
2016-06-11T02:52:37.727Z,996.13
2016-06-11T02:53:37.760Z,996.14
2016-06-11T02:54:37.826Z,996.12
2016-06-11T02:55:37.846Z,996.09
2016-06-11T02:56:37.895Z,996.11
2016-06-11T02:57:37.929Z,996.1
2016-06-11T02:58:37.980Z,996.09
2016-06-11T02:59:38.014Z,996.07
2016-06-11T03:00:38.048Z,996.03
2016-06-11T03:01:38.129Z,996.08
2016-06-11T03:02:38.133Z,996.07
2016-06-11T03:03:38.182Z,996.04
2016-06-11T03:04:38.216Z,996.09
2016-06-11T03:05:38.267Z,996.06
2016-06-11T03:06:38.300Z,996.09
2016-06-11T03:07:38.350Z,996.13
2016-06-11T03:08:38.386Z,996.09
2016-06-11T03:09:38.420Z,996.1
2016-06-11T03:10:38.470Z,996.09
2016-06-11T03:11:38.503Z,996.12
2016-06-11T03:12:38.553Z,996.1
2016-06-11T03:13:38.588Z,996.09
2016-06-11T03:14:38.919Z,996.11
2016-06-11T03:15:38.672Z,996.13
2016-06-11T03:16:38.722Z,996.12
2016-06-11T03:17:38.756Z,996.16
2016-06-11T03:18:38.806Z,996.17
2016-06-11T03:19:38.857Z,996.16
2016-06-11T03:20:38.890Z,996.16
2016-06-11T03:21:38.925Z,996.18
2016-06-11T03:22:38.960Z,996.17
2016-06-11T03:23:39.010Z,996.2
2016-06-11T03:24:39.043Z,996.19
2016-06-11T03:25:39.094Z,996.22
2016-06-11T03:26:39.128Z,996.19
2016-06-11T03:27:39.162Z,996.26
2016-06-11T03:28:39.212Z,996.24
2016-06-11T03:29:39.262Z,996.28
2016-06-11T03:30:39.296Z,996.27
2016-06-11T03:31:39.331Z,996.27
2016-06-11T03:32:39.380Z,996.26
2016-06-11T03:33:39.416Z,996.22
2016-06-11T03:34:39.466Z,996.27
2016-06-11T03:35:39.499Z,996.24
2016-06-11T03:36:39.550Z,996.23
2016-06-11T03:37:39.584Z,996.23
2016-06-11T03:38:39.617Z,996.25
2016-06-11T03:39:39.668Z,996.26
2016-06-11T03:40:39.702Z,996.23
2016-06-11T03:41:39.752Z,996.25
2016-06-11T03:42:39.786Z,996.21
2016-06-11T03:43:39.836Z,996.24
2016-06-11T03:44:40.527Z,996.21
2016-06-11T03:45:39.905Z,996.25
2016-06-11T03:46:39.955Z,996.24
2016-06-11T03:47:39.990Z,996.2
2016-06-11T03:48:40.055Z,996.24
2016-06-11T03:49:40.074Z,996.27
2016-06-11T03:50:40.123Z,996.28
2016-06-11T03:51:40.158Z,996.29
2016-06-11T03:52:40.208Z,996.3
2016-06-11T03:53:40.242Z,996.29
2016-06-11T03:54:40.292Z,996.32
2016-06-11T03:55:40.326Z,996.33
2016-06-11T03:56:40.361Z,996.3
2016-06-11T03:57:40.411Z,996.3
2016-06-11T03:58:40.446Z,996.26
2016-06-11T03:59:40.573Z,996.26
2016-06-11T04:00:40.982Z,996.23
2016-06-11T04:01:40.876Z,996.29
2016-06-11T04:02:40.644Z,996.28
2016-06-11T04:03:40.913Z,996.29
2016-06-11T04:04:40.697Z,996.31
2016-06-11T04:05:40.904Z,996.31
2016-06-11T04:06:41.032Z,996.32
2016-06-11T04:07:41.159Z,996.28
2016-06-11T04:08:41.132Z,996.3
2016-06-11T04:09:41.198Z,996.31
2016-06-11T04:10:41.154Z,996.33
2016-06-11T04:11:41.047Z,996.33
2016-06-11T04:12:41.082Z,996.32
2016-06-11T04:13:41.178Z,996.34
2016-06-11T04:14:41.135Z,996.35
2016-06-11T04:15:41.278Z,996.36
2016-06-11T04:16:41.265Z,996.35
2016-06-11T04:17:41.301Z,996.36
2016-06-11T04:18:41.334Z,996.34
2016-06-11T04:19:41.384Z,996.38
2016-06-11T04:20:41.419Z,996.36
2016-06-11T04:21:41.453Z,996.41
2016-06-11T04:22:41.519Z,996.4
2016-06-11T04:23:41.553Z,996.43
2016-06-11T04:24:41.588Z,996.44
2016-06-11T04:25:41.653Z,996.44
2016-06-11T04:26:41.671Z,996.42
2016-06-11T04:27:41.706Z,996.45
2016-06-11T04:28:41.757Z,996.43
2016-06-11T04:29:41.790Z,996.45
2016-06-11T04:30:42.122Z,996.44
2016-06-11T04:31:41.906Z,996.42
2016-06-11T04:32:42.065Z,996.44
2016-06-11T04:33:42.037Z,996.43
2016-06-11T04:34:42.009Z,996.44
2016-06-11T04:35:42.059Z,996.44
2016-06-11T04:36:42.077Z,996.43
2016-06-11T04:37:42.127Z,996.41
2016-06-11T04:38:42.162Z,996.43
2016-06-11T04:39:42.227Z,996.48
2016-06-11T04:40:42.199Z,996.49
2016-06-11T04:41:42.234Z,996.49
2016-06-11T04:42:42.267Z,996.5
2016-06-11T04:43:42.317Z,996.5
2016-06-11T04:44:42.571Z,996.51
2016-06-11T04:45:42.401Z,996.53
2016-06-11T04:46:42.467Z,996.52
2016-06-11T04:47:42.486Z,996.54
2016-06-11T04:48:42.521Z,996.57
2016-06-11T04:49:42.586Z,996.55
2016-06-11T04:50:42.605Z,996.57
2016-06-11T04:51:42.655Z,996.61
2016-06-11T04:52:42.689Z,996.61
2016-06-11T04:53:42.740Z,996.62
2016-06-11T04:54:42.773Z,996.64
2016-06-11T04:55:42.807Z,996.65
2016-06-11T04:56:42.857Z,996.62
2016-06-11T04:57:42.938Z,996.65
2016-06-11T04:58:42.942Z,996.62
2016-06-11T04:59:42.977Z,996.65
2016-06-11T05:00:43.854Z,996.69
2016-06-11T05:01:43.076Z,996.66
2016-06-11T05:02:43.111Z,996.68
2016-06-11T05:03:43.145Z,996.72
2016-06-11T05:04:43.195Z,996.73
2016-06-11T05:05:43.229Z,996.69
2016-06-11T05:06:43.279Z,996.73
2016-06-11T05:07:43.314Z,996.7
2016-06-11T05:08:43.363Z,996.69
2016-06-11T05:09:43.414Z,996.7
2016-06-11T05:10:43.431Z,996.71
2016-06-11T05:11:43.482Z,996.7
2016-06-11T05:12:43.532Z,996.69
2016-06-11T05:13:43.565Z,996.7
2016-06-11T05:14:43.601Z,996.69
2016-06-11T05:15:43.651Z,996.72
2016-06-11T05:16:43.685Z,996.71
2016-06-11T05:17:43.735Z,996.72
2016-06-11T05:18:43.769Z,996.74
2016-06-11T05:19:43.820Z,996.77
2016-06-11T05:20:43.854Z,996.72
2016-06-11T05:21:43.903Z,996.75
2016-06-11T05:22:43.937Z,996.75
2016-06-11T05:23:44.004Z,996.74
2016-06-11T05:24:44.021Z,996.75
2016-06-11T05:25:44.057Z,996.77
2016-06-11T05:26:44.106Z,996.77
2016-06-11T05:27:44.140Z,996.79
2016-06-11T05:28:44.191Z,996.74
2016-06-11T05:29:44.225Z,996.79
2016-06-11T05:30:44.493Z,996.79
2016-06-11T05:31:44.325Z,996.8
2016-06-11T05:32:44.359Z,996.81
2016-06-11T05:33:44.393Z,996.76
2016-06-11T05:34:44.474Z,996.8
2016-06-11T05:35:44.478Z,996.77
2016-06-11T05:36:44.527Z,996.81
2016-06-11T05:37:44.561Z,996.79
2016-06-11T05:38:44.597Z,996.83
2016-06-11T05:39:44.645Z,996.82
2016-06-11T05:40:44.695Z,996.84
2016-06-11T05:41:44.731Z,996.82
2016-06-11T05:42:44.780Z,996.85
2016-06-11T05:43:44.815Z,996.88
2016-06-11T05:44:44.849Z,996.88
2016-06-11T05:45:45.322Z,996.85
2016-06-11T05:46:44.949Z,996.85
2016-06-11T05:47:44.983Z,996.87
2016-06-11T05:48:45.017Z,996.87
2016-06-11T05:49:45.068Z,996.88
2016-06-11T05:50:45.101Z,996.87
2016-06-11T05:51:45.151Z,996.9
2016-06-11T05:52:45.249Z,996.91
2016-06-11T05:53:45.236Z,996.88
2016-06-11T05:54:45.286Z,996.89
2016-06-11T05:55:45.319Z,996.91
2016-06-11T05:56:45.404Z,996.92
2016-06-11T05:57:45.481Z,996.89
2016-06-11T05:58:45.555Z,996.94
2016-06-11T05:59:45.645Z,996.91
2016-06-11T06:00:45.737Z,996.97
2016-06-11T06:01:45.789Z,996.96
2016-06-11T06:02:45.838Z,996.96
2016-06-11T06:03:45.918Z,996.97
2016-06-11T06:04:45.967Z,996.95
2016-06-11T06:05:46.016Z,996.98
2016-06-11T06:06:46.057Z,996.94
2016-06-11T06:07:46.112Z,996.97
2016-06-11T06:08:46.168Z,996.97
2016-06-11T06:09:46.207Z,996.97
2016-06-11T06:10:46.294Z,996.98
2016-06-11T06:11:46.299Z,997.01
2016-06-11T06:12:46.351Z,997
2016-06-11T06:13:46.388Z,997
2016-06-11T06:14:46.424Z,997.01
2016-06-11T06:15:46.476Z,997.01
2016-06-11T06:16:46.511Z,997.01
2016-06-11T06:17:46.562Z,997.11
2016-06-11T06:18:46.612Z,997.07
2016-06-11T06:19:46.647Z,997.09
2016-06-11T06:20:46.698Z,997.08
2016-06-11T06:21:46.733Z,997.06
2016-06-11T06:22:46.799Z,997.05
2016-06-11T06:23:46.817Z,997.08
2016-06-11T06:24:46.850Z,997.04
2016-06-11T06:25:46.917Z,997.08
2016-06-11T06:26:46.936Z,997.09
2016-06-11T06:27:46.985Z,997.09
2016-06-11T06:28:47.035Z,997.14
2016-06-11T06:29:47.070Z,997.1
2016-06-11T06:30:47.119Z,997.14
2016-06-11T06:31:47.154Z,997.13
2016-06-11T06:32:47.205Z,997.14
2016-06-11T06:33:47.238Z,997.14
2016-06-11T06:34:47.335Z,997.17
2016-06-11T06:35:47.323Z,997.19
2016-06-11T06:36:47.388Z,997.15
2016-06-11T06:37:47.406Z,997.17
2016-06-11T06:38:47.457Z,997.14
2016-06-11T06:39:47.507Z,997.2
2016-06-11T06:40:47.541Z,997.13
2016-06-11T06:41:47.591Z,997.19
2016-06-11T06:42:47.626Z,997.2
2016-06-11T06:43:47.675Z,997.2
2016-06-11T06:44:47.709Z,997.2
2016-06-11T06:45:47.869Z,997.21
2016-06-11T06:46:47.810Z,997.19
2016-06-11T06:47:47.844Z,997.2
2016-06-11T06:48:47.878Z,997.21
2016-06-11T06:49:47.927Z,997.19
2016-06-11T06:50:47.978Z,997.19
2016-06-11T06:51:48.013Z,997.2
2016-06-11T06:52:48.061Z,997.21
2016-06-11T06:53:48.128Z,997.21
2016-06-11T06:54:48.147Z,997.18
2016-06-11T06:55:48.181Z,997.24
2016-06-11T06:56:48.231Z,997.22
2016-06-11T06:57:48.266Z,997.21
2016-06-11T06:58:48.315Z,997.22
2016-06-11T06:59:48.365Z,997.23
2016-06-11T07:00:48.431Z,997.23
2016-06-11T07:01:48.449Z,997.26
2016-06-11T07:02:48.484Z,997.25
2016-06-11T07:03:48.533Z,997.23
2016-06-11T07:04:48.568Z,997.23
2016-06-11T07:05:48.618Z,997.27
2016-06-11T07:06:48.652Z,997.26
2016-06-11T07:07:48.702Z,997.26
2016-06-11T07:08:48.752Z,997.31
2016-06-11T07:09:48.786Z,997.3
2016-06-11T07:10:48.836Z,997.29
2016-06-11T07:11:48.870Z,997.27
2016-06-11T07:12:48.920Z,997.31
2016-06-11T07:13:48.970Z,997.32
2016-06-11T07:14:49.005Z,997.34
2016-06-11T07:15:49.054Z,997.33
2016-06-11T07:16:49.089Z,997.34
2016-06-11T07:17:49.139Z,997.35
2016-06-11T07:18:49.189Z,997.31
2016-06-11T07:19:49.223Z,997.35
2016-06-11T07:20:49.273Z,997.37
2016-06-11T07:21:49.308Z,997.35
2016-06-11T07:22:49.358Z,997.38
2016-06-11T07:23:49.392Z,997.38
2016-06-11T07:24:49.442Z,997.39
2016-06-11T07:25:49.492Z,997.4
2016-06-11T07:26:49.526Z,997.42
2016-06-11T07:27:49.576Z,997.41
2016-06-11T07:28:49.611Z,997.4
2016-06-11T07:29:49.661Z,997.42
2016-06-11T07:30:49.710Z,997.44
2016-06-11T07:31:49.745Z,997.44
2016-06-11T07:32:49.825Z,997.45
2016-06-11T07:33:49.829Z,997.46
2016-06-11T07:34:49.879Z,997.43
2016-06-11T07:35:49.929Z,997.42
2016-06-11T07:36:49.979Z,997.43
2016-06-11T07:37:50.013Z,997.43
2016-06-11T07:38:50.063Z,997.42
2016-06-11T07:39:50.098Z,997.46
2016-06-11T07:40:50.147Z,997.46
2016-06-11T07:41:50.181Z,997.49
2016-06-11T07:42:50.232Z,997.49
2016-06-11T07:43:50.282Z,997.47
2016-06-11T07:44:50.331Z,997.53
2016-06-11T07:45:50.679Z,997.5
2016-06-11T07:46:50.416Z,997.5
2016-06-11T07:47:50.466Z,997.53
2016-06-11T07:48:50.500Z,997.52
2016-06-11T07:49:50.550Z,997.48
2016-06-11T07:50:50.584Z,997.49
2016-06-11T07:51:50.634Z,997.5
2016-06-11T07:52:50.684Z,997.51
2016-06-11T07:53:50.750Z,997.54
2016-06-11T07:54:50.769Z,997.5
2016-06-11T07:55:50.802Z,997.51
2016-06-11T07:56:50.852Z,997.54
2016-06-11T07:57:50.903Z,997.51
2016-06-11T07:58:50.953Z,997.5
2016-06-11T07:59:50.987Z,997.53
2016-06-11T08:00:51.256Z,997.51
2016-06-11T08:01:51.071Z,997.53
2016-06-11T08:02:51.121Z,997.5
2016-06-11T08:03:51.171Z,997.54
2016-06-11T08:04:51.205Z,997.52
2016-06-11T08:05:51.256Z,997.49
2016-06-11T08:06:51.305Z,997.53
2016-06-11T08:07:51.356Z,997.49
2016-06-11T08:08:51.389Z,997.47
2016-06-11T08:09:51.439Z,997.52
2016-06-11T08:10:51.489Z,997.53
2016-06-11T08:11:51.524Z,997.53
2016-06-11T08:12:51.574Z,997.49
2016-06-11T08:13:51.623Z,997.5
2016-06-11T08:14:51.658Z,997.49
2016-06-11T08:15:51.724Z,997.48
2016-06-11T08:16:51.758Z,997.51
2016-06-11T08:17:51.792Z,997.51
2016-06-11T08:18:51.859Z,997.5
2016-06-11T08:19:51.892Z,997.51
2016-06-11T08:20:51.926Z,997.49
2016-06-11T08:21:51.976Z,997.45
2016-06-11T08:22:52.027Z,997.47
2016-06-11T08:23:52.077Z,997.47
2016-06-11T08:24:52.111Z,997.51
2016-06-11T08:25:52.192Z,997.49
2016-06-11T08:26:52.195Z,997.55
2016-06-11T08:27:52.245Z,997.54
2016-06-11T08:28:52.295Z,997.56
2016-06-11T08:29:52.345Z,997.54
2016-06-11T08:30:52.379Z,997.59
2016-06-11T08:31:52.429Z,997.58
2016-06-11T08:32:52.510Z,997.58
2016-06-11T08:33:52.513Z,997.59
2016-06-11T08:34:52.563Z,997.57
2016-06-11T08:35:52.629Z,997.55
2016-06-11T08:36:52.648Z,997.56
2016-06-11T08:37:52.697Z,997.55
2016-06-11T08:38:52.747Z,997.56
2016-06-11T08:39:52.782Z,997.59
2016-06-11T08:40:52.832Z,997.63
2016-06-11T08:41:52.897Z,997.6
2016-06-11T08:42:52.916Z,997.6
2016-06-11T08:43:52.997Z,997.61
2016-06-11T08:44:53.016Z,997.63
2016-06-11T08:45:53.706Z,997.61
2016-06-11T08:46:53.241Z,997.61
2016-06-11T08:47:53.150Z,997.6
2016-06-11T08:48:53.200Z,997.58
2016-06-11T08:49:53.250Z,997.6
2016-06-11T08:50:53.315Z,997.61
2016-06-11T08:51:53.335Z,997.59
2016-06-11T08:52:53.385Z,997.6
2016-06-11T08:53:53.419Z,997.62
2016-06-11T08:54:53.469Z,997.6
2016-06-11T08:55:53.519Z,997.61
2016-06-11T08:56:53.568Z,997.6
2016-06-11T08:57:53.650Z,997.57
2016-06-11T08:58:53.653Z,997.58
2016-06-11T08:59:53.703Z,997.55
2016-06-11T09:00:54.737Z,997.53
2016-06-11T09:01:53.944Z,997.55
2016-06-11T09:02:54.055Z,997.61
2016-06-11T09:03:54.105Z,997.6
2016-06-11T09:04:54.061Z,997.59
2016-06-11T09:05:54.112Z,997.58
2016-06-11T09:06:54.193Z,997.63
2016-06-11T09:07:54.101Z,997.65
2016-06-11T09:08:54.309Z,997.67
2016-06-11T09:09:54.358Z,997.62
2016-06-11T09:10:54.408Z,997.68
2016-06-11T09:11:54.318Z,997.71
2016-06-11T09:12:54.742Z,997.68
2016-06-11T09:13:54.340Z,997.69
2016-06-11T09:14:54.623Z,997.69
2016-06-11T09:15:54.423Z,997.69
2016-06-11T09:16:54.473Z,997.67
2016-06-11T09:17:54.523Z,997.66
2016-06-11T09:18:54.558Z,997.65
2016-06-11T09:19:54.655Z,997.63
2016-06-11T09:20:54.658Z,997.68
2016-06-11T09:21:54.691Z,997.64
2016-06-11T09:22:54.758Z,997.66
2016-06-11T09:23:54.792Z,997.67
2016-06-11T09:24:54.842Z,997.64
2016-06-11T09:25:54.892Z,997.61
2016-06-11T09:26:54.927Z,997.63
2016-06-11T09:27:54.976Z,997.64
2016-06-11T09:28:55.027Z,997.61
2016-06-11T09:29:55.076Z,997.64
2016-06-11T09:30:55.111Z,997.65
2016-06-11T09:31:55.567Z,997.67
2016-06-11T09:32:55.211Z,997.64
2016-06-11T09:33:55.261Z,997.65
2016-06-11T09:34:55.357Z,997.65
2016-06-11T09:35:55.407Z,997.66
2016-06-11T09:36:55.457Z,997.65
2016-06-11T09:37:55.523Z,997.63
2016-06-11T09:38:55.541Z,997.63
2016-06-11T09:39:55.591Z,997.63
2016-06-11T09:40:55.642Z,997.65
2016-06-11T09:41:55.675Z,997.64
2016-06-11T09:42:55.788Z,997.66
2016-06-11T09:43:55.885Z,997.67
2016-06-11T09:44:55.763Z,997.69
2016-06-11T09:45:56.844Z,997.68
2016-06-11T09:46:55.863Z,997.68
2016-06-11T09:47:56.100Z,997.69
2016-06-11T09:48:56.040Z,997.68
2016-06-11T09:49:56.075Z,997.73
2016-06-11T09:50:56.094Z,997.73
2016-06-11T09:51:56.144Z,997.72
2016-06-11T09:52:56.209Z,997.73
2016-06-11T09:53:56.197Z,997.72
2016-06-11T09:54:56.293Z,997.72
2016-06-11T09:55:56.343Z,997.7
2016-06-11T09:56:56.377Z,997.71
2016-06-11T09:57:56.569Z,997.74
2016-06-11T09:58:56.494Z,997.73
2016-06-11T09:59:56.465Z,997.73
2016-06-11T10:00:56.530Z,997.82
2016-06-11T10:01:56.581Z,997.77
2016-06-11T10:02:56.615Z,997.78
2016-06-11T10:03:56.665Z,997.81
2016-06-11T10:04:56.699Z,997.8
2016-06-11T10:05:56.750Z,997.77
2016-06-11T10:06:56.815Z,997.75
2016-06-11T10:07:56.849Z,997.72
2016-06-11T10:08:56.899Z,997.72
2016-06-11T10:09:56.934Z,997.74
2016-06-11T10:10:56.984Z,997.68
2016-06-11T10:11:57.033Z,997.72
2016-06-11T10:12:57.083Z,997.69
2016-06-11T10:13:57.133Z,997.69
2016-06-11T10:14:57.168Z,997.74
2016-06-11T10:15:57.218Z,997.73
2016-06-11T10:16:57.268Z,997.71
2016-06-11T10:17:57.317Z,997.7
2016-06-11T10:18:57.367Z,997.68
2016-06-11T10:19:57.418Z,997.68
2016-06-11T10:20:57.451Z,997.71
2016-06-11T10:21:57.501Z,997.71
2016-06-11T10:22:57.551Z,997.7
2016-06-11T10:23:57.617Z,997.7
2016-06-11T10:24:57.667Z,997.67
2016-06-11T10:25:57.685Z,997.67
2016-06-11T10:26:57.736Z,997.64
2016-06-11T10:27:57.785Z,997.64
2016-06-11T10:28:57.836Z,997.69
2016-06-11T10:29:57.885Z,997.66
2016-06-11T10:30:57.936Z,997.68
2016-06-11T10:31:58.454Z,997.7
2016-06-11T10:32:58.020Z,997.74
2016-06-11T10:33:58.071Z,997.74
2016-06-11T10:34:58.119Z,997.76
2016-06-11T10:35:58.169Z,997.83
2016-06-11T10:36:58.220Z,997.86
2016-06-11T10:37:58.269Z,997.9
2016-06-11T10:38:58.319Z,997.93
2016-06-11T10:39:58.354Z,997.97
2016-06-11T10:40:58.434Z,997.94
2016-06-11T10:41:58.454Z,997.93
2016-06-11T10:42:58.503Z,997.96
2016-06-11T10:43:58.554Z,997.98
2016-06-11T10:44:58.604Z,997.92
2016-06-11T10:45:58.669Z,997.94
2016-06-11T10:46:58.719Z,997.96
2016-06-11T10:47:58.753Z,997.95
2016-06-11T10:48:58.804Z,997.89
2016-06-11T10:49:58.853Z,997.89
2016-06-11T10:50:58.888Z,997.9
2016-06-11T10:51:58.937Z,997.89
2016-06-11T10:52:58.988Z,997.83
2016-06-11T10:53:59.037Z,997.82
2016-06-11T10:54:59.088Z,997.8
2016-06-11T10:55:59.153Z,997.78
2016-06-11T10:56:59.203Z,997.79
2016-06-11T10:57:59.253Z,997.72
2016-06-11T10:58:59.303Z,997.73
2016-06-11T10:59:59.353Z,997.72
2016-06-11T11:00:59.387Z,997.74
2016-06-11T11:01:59.437Z,997.71
2016-06-11T11:02:59.488Z,997.69
2016-06-11T11:03:59.552Z,997.7
2016-06-11T11:04:59.586Z,997.65
2016-06-11T11:05:59.653Z,997.7
2016-06-11T11:06:59.702Z,997.7
2016-06-11T11:07:59.753Z,997.7
2016-06-11T11:08:59.787Z,997.71
2016-06-11T11:09:59.852Z,997.71
2016-06-11T11:10:59.917Z,997.72
2016-06-11T11:11:59.937Z,997.73
2016-06-11T11:13:00.002Z,997.7
2016-06-11T11:14:00.052Z,997.67
2016-06-11T11:15:00.086Z,997.71
2016-06-11T11:16:00.152Z,997.68
2016-06-11T11:17:00.203Z,997.65
2016-06-11T11:18:00.267Z,997.66
2016-06-11T11:19:00.302Z,997.67
2016-06-11T11:20:00.399Z,997.67
2016-06-11T11:21:00.402Z,997.68
2016-06-11T11:22:00.452Z,997.68
2016-06-11T11:23:00.517Z,997.64
2016-06-11T11:24:00.552Z,997.63
2016-06-11T11:25:00.633Z,997.68
2016-06-11T11:26:00.651Z,997.64
2016-06-11T11:27:00.701Z,997.69
2016-06-11T11:28:00.767Z,997.68
2016-06-11T11:29:00.817Z,997.66
2016-06-11T11:30:00.868Z,997.57
2016-06-11T11:31:00.917Z,997.54
2016-06-11T11:32:00.983Z,997.5
2016-06-11T11:33:01.017Z,997.64
2016-06-11T11:34:01.067Z,997.72
2016-06-11T11:35:01.116Z,997.72
2016-06-11T11:36:01.167Z,997.6
2016-06-11T11:37:01.217Z,997.57
2016-06-11T11:38:01.266Z,997.74
2016-06-11T11:39:01.332Z,997.69
2016-06-11T11:40:01.383Z,997.73
2016-06-11T11:41:01.432Z,997.72
2016-06-11T11:42:01.482Z,997.7
2016-06-11T11:43:01.533Z,997.69
2016-06-11T11:44:01.581Z,997.68
2016-06-11T11:45:01.631Z,997.69
2016-06-11T11:46:01.698Z,997.72
2016-06-11T11:47:01.747Z,997.67
2016-06-11T11:48:01.798Z,997.7
2016-06-11T11:49:01.847Z,997.7
2016-06-11T11:50:01.896Z,997.56
2016-06-11T11:51:01.947Z,997.52
2016-06-11T11:52:01.997Z,997.67
2016-06-11T11:53:02.063Z,997.63
2016-06-11T11:54:02.097Z,997.58
2016-06-11T11:55:02.162Z,997.6
2016-06-11T11:56:02.212Z,997.71
2016-06-11T11:57:02.262Z,997.57
2016-06-11T11:58:02.312Z,997.52
2016-06-11T11:59:02.362Z,997.55
2016-06-11T12:00:02.413Z,997.64
2016-06-11T12:01:02.478Z,997.5
2016-06-11T12:02:02.512Z,997.46
2016-06-11T12:03:02.578Z,997.59
2016-06-11T12:04:02.628Z,997.65
2016-06-11T12:05:02.677Z,997.64
2016-06-11T12:06:02.728Z,997.61
2016-06-11T12:07:02.777Z,997.66
2016-06-11T12:08:02.827Z,997.5
2016-06-11T12:09:02.893Z,997.66
2016-06-11T12:10:02.928Z,997.65
2016-06-11T12:11:02.993Z,997.55
2016-06-11T12:12:03.042Z,997.54
2016-06-11T12:13:03.093Z,997.58
2016-06-11T12:14:03.159Z,997.52
2016-06-11T12:15:03.192Z,997.47
2016-06-11T12:16:03.243Z,997.42
2016-06-11T12:17:03.293Z,997.35
2016-06-11T12:18:03.358Z,997.35
2016-06-11T12:19:03.408Z,997.35
2016-06-11T12:20:03.489Z,997.44
2016-06-11T12:21:03.508Z,997.47
2016-06-11T12:22:03.558Z,997.44
2016-06-11T12:23:03.608Z,997.45
2016-06-11T12:24:03.673Z,997.45
2016-06-11T12:25:03.708Z,997.48
2016-06-11T12:26:03.757Z,997.46
2016-06-11T12:27:03.839Z,997.4
2016-06-11T12:28:03.858Z,997.41
2016-06-11T12:29:03.923Z,997.44
2016-06-11T12:30:03.958Z,997.55
2016-06-11T12:31:04.023Z,997.47
2016-06-11T12:32:04.073Z,997.43